createdAt,value
2018-03-28T00:02:08.442Z,100401.34
2018-03-28T00:04:36.877Z,100400.45
2018-03-28T00:07:05.370Z,100393.64
2018-03-28T00:09:33.882Z,100393.44
2018-03-28T00:12:02.342Z,100390.48
2018-03-28T00:14:30.941Z,100382.36
2018-03-28T00:16:59.358Z,100380.63
2018-03-28T00:19:27.996Z,100372.77
2018-03-28T00:21:56.436Z,100372.86
2018-03-28T00:24:24.885Z,100364.73
2018-03-28T00:26:53.495Z,100371.34
2018-03-28T00:29:22.045Z,100365.19
2018-03-28T00:31:50.915Z,100358.94
2018-03-28T00:34:20.526Z,100360.58
2018-03-28T00:36:49.887Z,100361.15
2018-03-28T00:39:19.295Z,100356.91
2018-03-28T00:41:48.083Z,100359.94
2018-03-28T00:44:16.751Z,100353.28
2018-03-28T00:46:45.326Z,100346.84
2018-03-28T00:49:14.059Z,100344.02
2018-03-28T00:51:42.507Z,100344.46
2018-03-28T00:54:11.008Z,100331.16
2018-03-28T00:56:39.454Z,100330.67
2018-03-28T00:59:07.947Z,100339.38
2018-03-28T01:01:37.127Z,100335.62
2018-03-28T01:04:05.766Z,100331.42
2018-03-28T01:06:34.499Z,100327.59
2018-03-28T01:09:03.290Z,100337.17
2018-03-28T01:11:32.315Z,100327.96
2018-03-28T01:14:04.575Z,100322.70
2018-03-28T01:16:33.295Z,100318.02
2018-03-28T01:19:01.771Z,100312.29
2018-03-28T01:21:30.183Z,100308.03
2018-03-28T01:23:58.594Z,100307.09
2018-03-28T01:26:27.306Z,100316.78
2018-03-28T01:29:00.019Z,100305.67
2018-03-28T01:31:28.512Z,100305.10
2018-03-28T01:33:57.150Z,100302.28
2018-03-28T01:36:25.690Z,100302.33
2018-03-28T01:38:54.275Z,100298.61
2018-03-28T01:41:23.043Z,100297.03
2018-03-28T01:43:51.642Z,100291.67
2018-03-28T01:46:20.227Z,100292.47
2018-03-28T01:48:50.805Z,100288.33
2018-03-28T01:51:19.239Z,100283.59
2018-03-28T01:53:48.174Z,100281.69
2018-03-28T01:56:17.504Z,100273.81
2018-03-28T01:58:46.329Z,100267.39
2018-03-28T02:01:17.962Z,100268.53
2018-03-28T02:03:46.577Z,100260.02
2018-03-28T02:06:14.962Z,100264.69
2018-03-28T02:08:43.502Z,100255.77
2018-03-28T02:11:11.999Z,100256.55
2018-03-28T02:13:40.777Z,100253.56
2018-03-28T02:16:10.232Z,100249.88
2018-03-28T02:18:38.938Z,100246.63
2018-03-28T02:21:07.490Z,100240.31
2018-03-28T02:23:37.333Z,100238.64
2018-03-28T02:26:06.031Z,100238.41
2018-03-28T02:28:35.366Z,100232.71
2018-03-28T02:31:04.477Z,100234.71
2018-03-28T02:33:33.121Z,100234.09
2018-03-28T02:36:02.323Z,100224.47
2018-03-28T02:38:30.906Z,100222.23
2018-03-28T02:41:00.149Z,100221.58
2018-03-28T02:43:28.738Z,100216.70
2018-03-28T02:45:57.460Z,100215.33
2018-03-28T02:48:26.848Z,100227.61
2018-03-28T02:50:55.293Z,100222.83
2018-03-28T02:53:23.782Z,100218.09
2018-03-28T02:55:52.292Z,100220.60
2018-03-28T02:58:20.771Z,100215.14
2018-03-28T03:00:52.155Z,100211.97
2018-03-28T03:03:21.272Z,100215.33
2018-03-28T03:05:49.964Z,100214.05
2018-03-28T03:08:18.415Z,100213.76
2018-03-28T03:10:47.163Z,100203.36
2018-03-28T03:13:15.886Z,100211.59
2018-03-28T03:15:44.601Z,100205.22
2018-03-28T03:18:13.438Z,100194.51
2018-03-28T03:20:43.800Z,100203.42
2018-03-28T03:23:12.544Z,100191.27
2018-03-28T03:25:41.821Z,100197.98
2018-03-28T03:28:12.518Z,100195.91
2018-03-28T03:30:43.184Z,100198.11
2018-03-28T03:33:11.778Z,100200.06
2018-03-28T03:35:42.073Z,100192.60
2018-03-28T03:38:11.344Z,100194.39
2018-03-28T03:40:40.026Z,100197.08
2018-03-28T03:43:09.002Z,100190.94
2018-03-28T03:45:39.190Z,100187.20
2018-03-28T03:48:07.572Z,100194.84
2018-03-28T03:50:36.270Z,100194.37
2018-03-28T03:53:04.795Z,100190.92
2018-03-28T03:55:34.354Z,100184.64
2018-03-28T03:58:03.003Z,100183.56
2018-03-28T04:00:31.551Z,100182.36
2018-03-28T04:02:59.989Z,100180.13
2018-03-28T04:05:28.507Z,100183.89
2018-03-28T04:07:56.982Z,100184.08
2018-03-28T04:10:25.462Z,100176.64
2018-03-28T04:12:53.987Z,100172.81
2018-03-28T04:15:22.527Z,100167.17
2018-03-28T04:17:51.076Z,100166.72
2018-03-28T04:20:19.667Z,100162.91
2018-03-28T04:22:48.137Z,100172.74
2018-03-28T04:25:16.735Z,100172.27
2018-03-28T04:27:45.300Z,100156.39
2018-03-28T04:30:13.815Z,100162.27
2018-03-28T04:32:42.212Z,100157.27
2018-03-28T04:35:10.855Z,100159.14
2018-03-28T04:37:40.057Z,100164.34
2018-03-28T04:40:10.425Z,100168.53
2018-03-28T04:42:39.043Z,100164.41
2018-03-28T04:45:09.191Z,100158.82
2018-03-28T04:47:37.663Z,100160.75
2018-03-28T04:50:06.079Z,100157.92
2018-03-28T04:52:35.433Z,100162.43
2018-03-28T04:55:04.398Z,100154.73
2018-03-28T04:57:33.512Z,100156.09
2018-03-28T05:00:02.223Z,100154.73
2018-03-28T05:02:30.941Z,100152.66
2018-03-28T05:04:59.827Z,100161.94
2018-03-28T05:07:29.116Z,100156.81
2018-03-28T05:09:58.682Z,100154.17
2018-03-28T05:12:28.318Z,100157.22
2018-03-28T05:14:57.986Z,100160.59
2018-03-28T05:17:26.636Z,100161.11
2018-03-28T05:19:55.540Z,100159.63
2018-03-28T05:22:24.643Z,100167.59
2018-03-28T05:24:53.320Z,100165.34
2018-03-28T05:27:21.867Z,100166.60
2018-03-28T05:29:50.832Z,100165.41
2018-03-28T05:32:19.247Z,100167.82
2018-03-28T05:34:48.390Z,100167.26
2018-03-28T05:37:17.509Z,100169.99
2018-03-28T05:39:46.541Z,100166.33
2018-03-28T05:42:15.794Z,100169.87
2018-03-28T05:44:44.939Z,100173.48
2018-03-28T05:47:14.012Z,100170.92
2018-03-28T05:49:42.827Z,100169.19
2018-03-28T05:52:11.777Z,100183.61
2018-03-28T05:54:41.171Z,100175.22
2018-03-28T05:57:10.060Z,100174.75
2018-03-28T05:59:39.060Z,100177.70
2018-03-28T06:02:07.653Z,100169.27
2018-03-28T06:04:36.387Z,100173.69
2018-03-28T06:07:04.891Z,100171.91
2018-03-28T06:09:33.408Z,100166.57
2018-03-28T06:12:01.816Z,100158.77
2018-03-28T06:14:30.339Z,100162.92
2018-03-28T06:16:58.811Z,100153.84
2018-03-28T06:19:27.258Z,100143.81
2018-03-28T06:21:55.791Z,100145.80
2018-03-28T06:24:24.180Z,100130.80
2018-03-28T06:26:52.593Z,100127.80
2018-03-28T06:29:20.988Z,100125.31
2018-03-28T06:31:49.402Z,100121.92
2018-03-28T06:34:17.787Z,100119.24
2018-03-28T06:36:46.175Z,100117.20
2018-03-28T06:39:14.706Z,100120.85
2018-03-28T06:41:43.348Z,100123.60
2018-03-28T06:44:11.855Z,100141.47
2018-03-28T06:46:40.259Z,100125.77
2018-03-28T06:49:08.785Z,100134.34
2018-03-28T06:51:37.205Z,100144.31
2018-03-28T06:54:06.040Z,100131.09
2018-03-28T06:56:34.845Z,100138.38
2018-03-28T06:59:03.766Z,100144.16
2018-03-28T07:01:32.167Z,100141.06
2018-03-28T07:04:00.627Z,100144.20
2018-03-28T07:06:29.992Z,100133.39
2018-03-28T07:08:58.939Z,100142.27
2018-03-28T07:11:27.778Z,100132.84
2018-03-28T07:13:56.964Z,100129.06
2018-03-28T07:16:26.578Z,100135.11
2018-03-28T07:18:55.334Z,100131.09
2018-03-28T07:21:24.238Z,100139.66
2018-03-28T07:23:53.949Z,100133.29
2018-03-28T07:26:23.556Z,100142.11
2018-03-28T07:28:52.639Z,100143.41
2018-03-28T07:31:21.633Z,100138.16
2018-03-28T07:33:51.804Z,100139.25
2018-03-28T07:36:21.484Z,100132.08
2018-03-28T07:38:49.926Z,100140.69
2018-03-28T07:41:18.391Z,100131.33
2018-03-28T07:43:46.925Z,100128.40
2018-03-28T07:46:15.315Z,100127.12
2018-03-28T07:48:43.690Z,100129.52
2018-03-28T07:51:15.491Z,100122.42
2018-03-28T07:53:44.284Z,100127.66
2018-03-28T07:56:23.418Z,100113.00
2018-03-28T07:58:52.916Z,100121.83
2018-03-28T08:01:21.585Z,100122.25
2018-03-28T08:03:50.069Z,100123.64
2018-03-28T08:06:18.601Z,100126.19
2018-03-28T08:08:47.460Z,100115.22
2018-03-28T08:11:15.959Z,100109.55
2018-03-28T08:13:44.570Z,100101.96
2018-03-28T08:16:13.041Z,100106.69
2018-03-28T08:18:41.547Z,100103.56
2018-03-28T08:21:10.031Z,100100.66
2018-03-28T08:23:38.791Z,100101.86
2018-03-28T08:26:07.386Z,100116.59
2018-03-28T08:28:35.866Z,100111.21
2018-03-28T08:31:04.545Z,100094.98
2018-03-28T08:33:33.027Z,100088.33
2018-03-28T08:36:01.844Z,100074.64
2018-03-28T08:38:30.317Z,100074.76
2018-03-28T08:40:58.793Z,100072.05
2018-03-28T08:43:27.265Z,100075.30
2018-03-28T08:45:55.772Z,100081.50
2018-03-28T08:48:24.259Z,100063.92
2018-03-28T08:50:52.940Z,100069.81
2018-03-28T08:53:21.426Z,100062.35
2018-03-28T08:55:50.223Z,100056.41
2018-03-28T08:58:18.977Z,100065.61
2018-03-28T09:00:47.613Z,100084.63
2018-03-28T09:03:16.102Z,100058.23
2018-03-28T09:05:44.578Z,100058.80
2018-03-28T09:08:13.107Z,100062.86
2018-03-28T09:10:41.578Z,100059.52
2018-03-28T09:13:10.246Z,100050.05
2018-03-28T09:15:38.758Z,100062.86
2018-03-28T09:18:07.361Z,100056.86
2018-03-28T09:20:35.949Z,100055.16
2018-03-28T09:23:04.609Z,100058.56
2018-03-28T09:25:33.079Z,100046.57
2018-03-28T09:28:01.774Z,100047.17
2018-03-28T09:30:30.269Z,100048.17
2018-03-28T09:32:59.340Z,100039.22
2018-03-28T09:35:27.806Z,100047.86
2018-03-28T09:37:56.441Z,100034.60
2018-03-28T09:40:24.953Z,100046.19
2018-03-28T09:42:53.459Z,100033.31
2018-03-28T09:45:22.234Z,100033.18
2018-03-28T09:47:50.786Z,100057.56
2018-03-28T09:50:19.526Z,100038.33
2018-03-28T09:52:48.130Z,100042.17
2018-03-28T09:55:16.669Z,100045.59
2018-03-28T09:57:45.196Z,100052.92
2018-03-28T10:00:19.806Z,100037.27
2018-03-28T10:02:48.443Z,100052.98
2018-03-28T10:05:16.915Z,100041.74
2018-03-28T10:07:45.489Z,100038.25
2018-03-28T10:10:13.959Z,100044.28
2018-03-28T10:12:42.713Z,100042.27
2018-03-28T10:15:11.238Z,100044.47
2018-03-28T10:17:39.757Z,100045.30
2018-03-28T10:20:08.406Z,100050.73
2018-03-28T10:22:37.126Z,100047.31
2018-03-28T10:25:05.637Z,100051.13
2018-03-28T10:27:34.168Z,100053.94
2018-03-28T10:30:02.721Z,100041.44
2018-03-28T10:32:31.275Z,100047.34
2018-03-28T10:34:59.754Z,100043.81
2018-03-28T10:37:28.241Z,100037.70
2018-03-28T10:39:56.952Z,100039.12
2018-03-28T10:42:25.439Z,100059.09
2018-03-28T10:44:54.176Z,100031.07
2018-03-28T10:47:22.678Z,100035.95
2018-03-28T10:49:51.186Z,100036.00
2018-03-28T10:52:19.665Z,100028.95
2018-03-28T10:54:48.216Z,100029.61
2018-03-28T10:57:16.745Z,100028.53
2018-03-28T10:59:45.406Z,100019.27
2018-03-28T11:02:13.876Z,100019.36
2018-03-28T11:04:42.411Z,100015.88
2018-03-28T11:07:10.908Z,100016.47
2018-03-28T11:09:39.871Z,100007.58
2018-03-28T11:12:08.378Z,100003.20
2018-03-28T11:14:36.996Z,99992.73
2018-03-28T11:17:05.566Z,99994.37
2018-03-28T11:19:34.398Z,99998.39
2018-03-28T11:22:03.106Z,100013.77
2018-03-28T11:24:31.840Z,99992.14
2018-03-28T11:27:00.359Z,99996.69
2018-03-28T11:29:28.939Z,99983.17
2018-03-28T11:31:57.568Z,99986.44
2018-03-28T11:34:26.050Z,99980.79
2018-03-28T11:36:54.910Z,99979.88
2018-03-28T11:39:23.421Z,99994.77
2018-03-28T11:41:52.305Z,99979.75
2018-03-28T11:44:20.838Z,99981.69
2018-03-28T11:46:49.370Z,99989.70
2018-03-28T11:49:17.879Z,99984.46
2018-03-28T11:51:46.669Z,99982.42
2018-03-28T11:54:15.285Z,99971.34
2018-03-28T11:56:43.823Z,99959.61
2018-03-28T11:59:12.355Z,99967.12
2018-03-28T12:01:41.003Z,99971.58
2018-03-28T12:04:09.519Z,99993.77
2018-03-28T12:06:38.102Z,99981.27
2018-03-28T12:09:06.575Z,99972.05
2018-03-28T12:11:35.053Z,99958.97
2018-03-28T12:14:03.614Z,99962.84
2018-03-28T12:16:32.284Z,99975.70
2018-03-28T12:19:00.773Z,99967.27
2018-03-28T12:21:29.300Z,99966.78
2018-03-28T12:23:57.939Z,99962.22
2018-03-28T12:26:26.518Z,99977.87
2018-03-28T12:28:55.046Z,99978.32
2018-03-28T12:31:23.791Z,99960.94
2018-03-28T12:33:52.309Z,99957.61
2018-03-28T12:36:21.092Z,99953.66
2018-03-28T12:38:49.848Z,99965.30
2018-03-28T12:41:18.494Z,99968.72
2018-03-28T12:43:47.009Z,99954.31
2018-03-28T12:46:15.534Z,99957.20
2018-03-28T12:48:45.915Z,99953.97
2018-03-28T12:51:14.421Z,99950.69
2018-03-28T12:53:42.971Z,99962.22
2018-03-28T12:56:11.758Z,99960.33
2018-03-28T12:58:40.327Z,99969.60
2018-03-28T13:01:08.973Z,99969.97
2018-03-28T13:03:37.526Z,99979.78
2018-03-28T13:06:06.157Z,99955.63
2018-03-28T13:08:34.640Z,99952.36
2018-03-28T13:11:05.366Z,99958.30
2018-03-28T13:13:33.972Z,99953.45
2018-03-28T13:16:02.534Z,99947.97
2018-03-28T13:18:31.284Z,99949.28
2018-03-28T13:20:59.732Z,99946.34
2018-03-28T13:23:28.189Z,99932.16
2018-03-28T13:25:56.735Z,99937.58
2018-03-28T13:28:25.222Z,99930.56
2018-03-28T13:30:53.739Z,99935.58
2018-03-28T13:33:22.373Z,99928.26
2018-03-28T13:35:50.847Z,99923.20
2018-03-28T13:38:20.274Z,99927.11
2018-03-28T13:40:49.085Z,99926.88
2018-03-28T13:43:17.570Z,99907.83
2018-03-28T13:45:46.407Z,99904.22
2018-03-28T13:48:15.010Z,99895.88
2018-03-28T13:50:43.575Z,99900.78
2018-03-28T13:53:12.062Z,99896.28
2018-03-28T13:55:41.055Z,99893.68
2018-03-28T13:58:09.757Z,99901.55
2018-03-28T14:00:38.781Z,99880.86
2018-03-28T14:03:07.695Z,99878.91
2018-03-28T14:05:36.224Z,99878.48
2018-03-28T14:08:04.749Z,99894.16
2018-03-28T14:10:33.214Z,99881.70
2018-03-28T14:13:01.761Z,99876.58
2018-03-28T14:15:30.295Z,99870.16
2018-03-28T14:17:58.882Z,99854.44
2018-03-28T14:20:27.375Z,99854.47
2018-03-28T14:22:56.044Z,99838.28
2018-03-28T14:25:24.550Z,99856.14
2018-03-28T14:27:53.013Z,99838.09
2018-03-28T14:30:21.589Z,99839.40
2018-03-28T14:32:50.105Z,99831.91
2018-03-28T14:35:18.586Z,99844.27
2018-03-28T14:37:47.237Z,99839.34
2018-03-28T14:40:15.769Z,99852.02
2018-03-28T14:42:54.587Z,99849.34
2018-03-28T14:45:12.964Z,99864.31
2018-03-28T14:47:41.466Z,99853.59
2018-03-28T14:50:09.938Z,99851.38
2018-03-28T14:52:38.494Z,99842.39
2018-03-28T14:55:06.993Z,99830.64
2018-03-28T14:57:35.857Z,99837.23
2018-03-28T15:00:04.361Z,99831.20
2018-03-28T15:02:32.872Z,99823.05
2018-03-28T15:05:01.649Z,99816.66
2018-03-28T15:07:30.252Z,99824.28
2018-03-28T15:09:58.816Z,99813.16
2018-03-28T15:12:27.489Z,99808.97
2018-03-28T15:14:56.029Z,99791.15
2018-03-28T15:17:24.629Z,99795.59
2018-03-28T15:19:53.182Z,99803.28
2018-03-28T15:22:21.833Z,99800.05
2018-03-28T15:24:50.481Z,99787.33
2018-03-28T15:27:18.961Z,99791.14
2018-03-28T15:29:47.700Z,99807.98
2018-03-28T15:32:16.182Z,99786.75
2018-03-28T15:34:45.044Z,99793.16
2018-03-28T15:37:13.686Z,99799.50
2018-03-28T15:39:42.210Z,99791.02
2018-03-28T15:42:11.022Z,99802.80
2018-03-28T15:44:40.013Z,99781.29
2018-03-28T15:47:08.588Z,99790.44
2018-03-28T15:49:37.638Z,99792.05
2018-03-28T15:52:06.183Z,99787.44
2018-03-28T15:54:34.660Z,99783.12
2018-03-28T15:57:03.134Z,99771.54
2018-03-28T15:59:32.518Z,99768.70
2018-03-28T16:02:00.993Z,99772.67
2018-03-28T16:04:29.573Z,99768.70
2018-03-28T16:06:58.089Z,99772.33
2018-03-28T16:09:26.824Z,99766.89
2018-03-28T16:11:55.293Z,99768.52
2018-03-28T16:14:24.008Z,99758.25
2018-03-28T16:16:52.466Z,99748.58
2018-03-28T16:19:21.163Z,99752.13
2018-03-28T16:21:49.745Z,99734.58
2018-03-28T16:24:18.296Z,99734.06
2018-03-28T16:26:46.755Z,99745.09
2018-03-28T16:29:15.501Z,99739.50
2018-03-28T16:31:43.953Z,99727.59
2018-03-28T16:34:12.485Z,99721.83
2018-03-28T16:36:41.066Z,99713.66
2018-03-28T16:39:09.552Z,99707.11
2018-03-28T16:41:39.698Z,99711.45
2018-03-28T16:44:08.683Z,99697.00
2018-03-28T16:46:37.239Z,99692.69
2018-03-28T16:49:05.692Z,99699.63
2018-03-28T16:51:34.279Z,99696.95
2018-03-28T16:54:03.257Z,99695.05
2018-03-28T16:56:31.804Z,99681.98
2018-03-28T16:59:00.283Z,99684.38
2018-03-28T17:01:28.749Z,99675.80
2018-03-28T17:05:15.488Z,99688.06
2018-03-28T17:07:43.953Z,99667.63
2018-03-28T17:10:12.432Z,99674.67
2018-03-28T17:12:40.870Z,99664.44
2018-03-28T17:15:09.327Z,99659.37
2018-03-28T17:17:37.780Z,99649.72
2018-03-28T17:20:06.239Z,99645.61
2018-03-28T17:22:34.676Z,99632.20
2018-03-28T17:25:03.131Z,99633.02
2018-03-28T17:27:31.587Z,99636.23
2018-03-28T17:30:00.052Z,99626.24
2018-03-28T17:32:28.892Z,99627.58
2018-03-28T17:34:57.379Z,99641.00
2018-03-28T17:37:25.844Z,99633.04
2018-03-28T17:39:54.287Z,99625.28
2018-03-28T17:42:23.218Z,99625.19
2018-03-28T17:44:51.693Z,99622.20
2018-03-28T17:47:20.141Z,99621.89
2018-03-28T17:49:48.983Z,99620.82
2018-03-28T17:52:17.431Z,99624.23
2018-03-28T17:54:45.869Z,99621.94
2018-03-28T17:57:14.308Z,99627.72
2018-03-28T17:59:42.744Z,99613.53
2018-03-28T18:02:11.594Z,99614.12
2018-03-28T18:04:40.028Z,99611.69
2018-03-28T18:07:08.870Z,99606.20
2018-03-28T18:09:37.311Z,99608.28
2018-03-28T18:12:05.813Z,99600.69
2018-03-28T18:14:34.260Z,99584.60
2018-03-28T18:17:02.716Z,99593.62
2018-03-28T18:19:31.167Z,99566.59
2018-03-28T18:21:59.622Z,99559.03
2018-03-28T18:24:28.053Z,99581.19
2018-03-28T18:26:56.551Z,99552.81
2018-03-28T18:29:25.404Z,99532.48
2018-03-28T18:31:53.896Z,99521.82
2018-03-28T18:34:22.329Z,99519.57
2018-03-28T18:36:50.782Z,99512.99
2018-03-28T18:39:19.607Z,99532.84
2018-03-28T18:41:48.052Z,99504.66
2018-03-28T18:44:16.980Z,99526.85
2018-03-28T18:46:45.442Z,99522.52
2018-03-28T18:49:13.949Z,99511.22
2018-03-28T18:51:42.446Z,99499.12
2018-03-28T18:54:10.916Z,99511.46
2018-03-28T18:56:39.397Z,99496.99
2018-03-28T18:59:07.894Z,99500.50
2018-03-28T19:01:36.349Z,99511.75
2018-03-28T19:04:04.840Z,99520.23
2018-03-28T19:06:33.320Z,99515.48
2018-03-28T19:09:01.761Z,99515.02
2018-03-28T19:11:30.595Z,99527.73
2018-03-28T19:13:59.073Z,99515.52
2018-03-28T19:16:27.521Z,99513.16
2018-03-28T19:18:55.988Z,99507.64
2018-03-28T19:21:24.831Z,99517.52
2018-03-28T19:23:53.304Z,99503.61
2018-03-28T19:26:21.749Z,99501.69
2018-03-28T19:28:50.684Z,99499.84
2018-03-28T19:31:19.170Z,99491.14
2018-03-28T19:33:47.685Z,99485.59
2018-03-28T19:36:16.568Z,99483.59
2018-03-28T19:38:45.110Z,99476.86
2018-03-28T19:41:13.553Z,99481.86
2018-03-28T19:43:42.406Z,99476.03
2018-03-28T19:46:10.889Z,99472.80
2018-03-28T19:48:39.328Z,99474.87
2018-03-28T19:51:07.789Z,99463.49
2018-03-28T19:53:36.620Z,99463.16
2018-03-28T19:56:05.095Z,99467.61
2018-03-28T19:58:33.578Z,99467.55
2018-03-28T20:01:02.240Z,99455.26
2018-03-28T20:03:30.979Z,99458.77
2018-03-28T20:05:59.463Z,99455.06
2018-03-28T20:08:27.923Z,99441.42
2018-03-28T20:10:56.391Z,99441.84
2018-03-28T20:13:25.495Z,99429.03
2018-03-28T20:15:53.966Z,99420.30
2018-03-28T20:18:22.426Z,99421.45
2018-03-28T20:20:50.939Z,99423.23
2018-03-28T20:23:19.386Z,99408.13
2018-03-28T20:25:48.706Z,99408.84
2018-03-28T20:28:18.309Z,99399.82
2018-03-28T20:30:47.483Z,99412.64
2018-03-28T20:33:17.821Z,99388.15
2018-03-28T20:35:47.882Z,99375.66
2018-03-28T20:38:18.264Z,99365.33
2018-03-28T20:40:47.712Z,99362.73
2018-03-28T20:43:17.571Z,99354.59
2018-03-28T20:45:49.448Z,99347.20
2018-03-28T20:48:18.628Z,99339.97
2018-03-28T20:50:52.338Z,99337.08
2018-03-28T20:53:20.790Z,99327.94
2018-03-28T20:55:49.270Z,99318.44
2018-03-28T20:58:17.823Z,99307.23
2018-03-28T21:00:46.342Z,99298.68
2018-03-28T21:03:18.192Z,99290.98
2018-03-28T21:05:46.704Z,99292.95
2018-03-28T21:08:15.573Z,99298.55
2018-03-28T21:10:44.031Z,99287.78
2018-03-28T21:13:13.136Z,99294.45
2018-03-28T21:15:41.599Z,99289.06
2018-03-28T21:18:10.073Z,99279.33
2018-03-28T21:20:39.061Z,99284.04
2018-03-28T21:23:07.558Z,99278.19
2018-03-28T21:25:36.031Z,99267.27
2018-03-28T21:28:04.829Z,99272.91
2018-03-28T21:30:33.538Z,99257.33
2018-03-28T21:33:03.163Z,99249.66
2018-03-28T21:35:33.945Z,99251.23
2018-03-28T21:38:02.420Z,99239.23
2018-03-28T21:40:31.106Z,99238.36
2018-03-28T21:42:59.603Z,99212.86
2018-03-28T21:45:28.077Z,99212.21
2018-03-28T21:47:56.528Z,99201.98
2018-03-28T21:50:25.317Z,99187.67
2018-03-28T21:52:53.827Z,99180.80
2018-03-28T21:55:22.390Z,99195.47
2018-03-28T21:57:52.088Z,99205.44
2018-03-28T22:00:20.546Z,99218.38
2018-03-28T22:02:49.390Z,99213.37
2018-03-28T22:05:17.876Z,99201.55
2018-03-28T22:07:46.641Z,99175.63
2018-03-28T22:10:15.813Z,99172.09
2018-03-28T22:12:44.311Z,99170.00
2018-03-28T22:15:15.409Z,99173.94
2018-03-28T22:17:44.744Z,99168.72
2018-03-28T22:20:15.018Z,99172.16
2018-03-28T22:22:43.589Z,99170.47
2018-03-28T22:25:12.076Z,99160.94
2018-03-28T22:27:41.389Z,99173.42
2018-03-28T22:30:10.023Z,99154.06
2018-03-28T22:32:39.972Z,99153.14
2018-03-28T22:35:08.617Z,99145.44
2018-03-28T22:37:37.794Z,99143.28
2018-03-28T22:40:07.425Z,99146.32
2018-03-28T22:42:36.702Z,99153.27
2018-03-28T22:45:05.441Z,99144.20
2018-03-28T22:47:34.519Z,99144.60
2018-03-28T22:50:04.022Z,99150.23
2018-03-28T22:52:33.283Z,99152.41
2018-03-28T22:55:02.715Z,99120.85
2018-03-28T22:57:32.107Z,99132.50
2018-03-28T23:00:02.565Z,99126.89
2018-03-28T23:02:31.948Z,99140.13
2018-03-28T23:05:02.604Z,99117.76
2018-03-28T23:07:32.784Z,99120.34
2018-03-28T23:10:03.759Z,99109.56
2018-03-28T23:12:32.695Z,99119.11
2018-03-28T23:15:01.299Z,99115.20
2018-03-28T23:17:30.151Z,99110.84
2018-03-28T23:19:58.628Z,99099.64
2018-03-28T23:22:38.479Z,99097.48
2018-03-28T23:25:06.934Z,99095.33
2018-03-28T23:27:35.389Z,99088.80
2018-03-28T23:30:03.866Z,99084.05
2018-03-28T23:32:32.712Z,99093.61
2018-03-28T23:35:01.223Z,99085.79
2018-03-28T23:37:29.746Z,99089.25
2018-03-28T23:39:58.301Z,99088.82
2018-03-28T23:42:27.148Z,99071.95
2018-03-28T23:44:55.598Z,99079.28
2018-03-28T23:47:24.058Z,99073.70
2018-03-28T23:49:52.911Z,99070.24
2018-03-28T23:52:21.377Z,99068.08
2018-03-28T23:54:49.934Z,99062.04
2018-03-28T23:57:18.394Z,99059.86
2018-03-28T23:59:47.294Z,99059.01
